Time;durP1;ratioP1;P1;durP2;ratioP2;P2;SDS_P1;SDS_P2;PMS_P1;PMS_P2;Temp;Humidity;BMP_temperature;BMP_pressure;BME280_temperature;BME280_humidity;BME280_pressure;Samples;Min_cycle;Max_cycle;Signal;HPM_P1;HPM_P2
2022/06/20 00:02:22;;;;;;;12.45;4.85;;;24.40;92.10;;;;;;5095799;28;20073;-67
2022/06/20 00:04:50;;;;;;;13.10;4.18;;;24.40;92.00;;;;;;5095565;28;20031;-67
2022/06/20 00:07:16;;;;;;;17.10;4.57;;;24.50;92.10;;;;;;5095533;28;20074;-67
2022/06/20 00:09:42;;;;;;;;;;;24.50;92.10;;;;;;5095622;28;20079;-67
2022/06/20 00:12:13;;;;;;;7.85;4.10;;;24.50;92.30;;;;;;5095372;28;19998;-67
2022/06/20 00:14:38;;;;;;;12.60;5.00;;;24.50;92.40;;;;;;5095588;28;20107;-67
2022/06/20 00:17:22;;;;;;;;;;;24.50;92.50;;;;;;5095776;28;20016;-66
2022/06/20 00:19:48;;;;;;;14.10;4.85;;;24.40;92.80;;;;;;5076921;28;19910;-66
2022/06/20 00:22:13;;;;;;;;;;;24.30;93.10;;;;;;5095734;28;20064;-67
2022/06/20 00:24:39;;;;;;;9.60;4.22;;;24.30;93.20;;;;;;5095223;28;19953;-66
2022/06/20 00:27:06;;;;;;;;;;;24.30;93.30;;;;;;5095702;28;20020;-67
2022/06/20 00:29:36;;;;;;;9.95;4.25;;;24.40;93.30;;;;;;5095039;28;19955;-66
2022/06/20 00:32:02;;;;;;;13.52;4.90;;;24.50;93.00;;;;;;5094957;28;20046;-66
2022/06/20 00:34:28;;;;;;;13.35;5.05;;;24.50;93.20;;;;;;5076693;28;20476;-67
2022/06/20 00:36:53;;;;;;;;;;;24.40;93.40;;;;;;5095173;28;20108;-66
2022/06/20 00:39:20;;;;;;;12.18;4.65;;;24.40;93.60;;;;;;5095038;28;19947;-66
2022/06/20 00:41:47;;;;;;;10.63;4.72;;;24.40;93.70;;;;;;5094767;28;20024;-67
2022/06/20 00:44:19;;;;;;;9.85;4.38;;;24.40;93.70;;;;;;5094831;28;20024;-67
2022/06/20 00:46:49;;;;;;;10.20;4.65;;;24.40;93.70;;;;;;5094718;28;20036;-67
2022/06/20 00:49:22;;;;;;;11.35;4.18;;;24.40;93.80;;;;;;5094652;28;20055;-67
2022/06/20 00:52:00;;;;;;;14.00;4.13;;;24.40;94.10;;;;;;5093998;28;20024;-66
2022/06/20 00:54:46;;;;;;;11.60;4.68;;;24.40;94.10;;;;;;5076523;28;20157;-67
2022/06/20 00:57:17;;;;;;;12.50;4.00;;;24.40;94.20;;;;;;5094648;28;20473;-66
2022/06/20 00:59:55;;;;;;;9.55;4.20;;;24.40;94.20;;;;;;5094440;28;20035;-66
2022/06/20 01:02:26;;;;;;;10.48;4.32;;;24.40;94.30;;;;;;5094226;28;20123;-66
2022/06/20 01:04:58;;;;;;;14.77;4.70;;;24.40;94.40;;;;;;5094537;28;20012;-66
2022/06/20 01:07:33;;;;;;;12.50;5.03;;;24.40;94.60;;;;;;5094768;28;20161;-66
2022/06/20 01:09:59;;;;;;;9.32;4.38;;;24.40;94.70;;;;;;5094195;28;20024;-66
2022/06/20 01:12:28;;;;;;;8.95;4.28;;;24.40;94.70;;;;;;5094114;28;20102;-67
2022/06/20 01:14:53;;;;;;;11.57;4.40;;;24.40;94.70;;;;;;5094092;28;20134;-66
2022/06/20 01:17:25;;;;;;;;;;;24.40;94.80;;;;;;5094981;28;20051;-66
2022/06/20 01:19:56;;;;;;;10.60;4.13;;;24.40;94.90;;;;;;5093878;28;20380;-66
2022/06/20 01:22:48;;;;;;;11.50;4.00;;;24.40;94.90;;;;;;5093868;28;20032;-67
2022/06/20 01:25:38;;;;;;;11.40;4.47;;;24.40;94.90;;;;;;5094221;28;20085;-67
2022/06/20 01:28:09;;;;;;;10.32;4.78;;;24.40;95.00;;;;;;5093759;28;20034;-67
2022/06/20 01:30:39;;;;;;;10.65;5.25;;;24.40;95.00;;;;;;5076093;28;20024;-67
2022/06/20 01:33:05;;;;;;;10.30;4.20;;;24.40;95.20;;;;;;5093699;28;20036;-67
2022/06/20 01:38:17;;;;;;;6.43;3.72;;;24.40;95.50;;;;;;5094712;28;20287;-62
2022/06/20 01:42:18;;;;;;;;;;;24.40;95.60;;;;;;5094180;28;20027;-62
2022/06/20 01:43:31;;;;;;;15.48;5.07;;;24.30;95.90;;;;;;5093396;28;19911;-62
2022/06/20 01:45:58;;;;;;;12.75;4.85;;;24.30;96.10;;;;;;5093547;28;20028;-62
2022/06/20 01:48:28;;;;;;;10.95;4.82;;;24.30;96.20;;;;;;5093379;28;20477;-62
2022/06/20 01:50:54;;;;;;;10.90;4.32;;;24.30;96.30;;;;;;5075259;28;20477;-62
2022/06/20 01:53:22;;;;;;;;;;;24.30;96.30;;;;;;5093863;28;20067;-62
2022/06/20 01:55:51;;;;;;;11.80;4.57;;;24.30;96.30;;;;;;5094015;28;19904;-63
2022/06/20 01:58:26;;;;;;;9.43;4.55;;;24.40;96.10;;;;;;5093349;28;20057;-63
2022/06/20 02:00:51;;;;;;;9.95;4.43;;;24.30;96.30;;;;;;5093648;28;20024;-62
2022/06/20 02:03:18;;;;;;;;;;;24.40;96.70;;;;;;5093274;28;20051;-62
2022/06/20 02:05:47;;;;;;;12.85;4.85;;;24.30;96.20;;;;;;5093466;28;20049;-62
2022/06/20 02:08:18;;;;;;;11.38;4.20;;;24.20;96.40;;;;;;5093891;28;20039;-62
2022/06/20 02:11:19;;;;;;;12.27;4.75;;;24.20;96.80;;;;;;5093588;28;20020;-62
2022/06/20 02:13:50;;;;;;;9.80;4.45;;;24.10;97.10;;;;;;5093728;28;20066;-62
2022/06/20 02:16:19;;;;;;;12.00;4.07;;;24.10;97.00;;;;;;5093724;28;20024;-63
2022/06/20 02:18:48;;;;;;;9.60;4.20;;;24.10;97.10;;;;;;5093139;28;20020;-63
2022/06/20 02:21:18;;;;;;;10.65;4.82;;;24.20;97.20;;;;;;5093328;28;20063;-62
2022/06/20 02:24:07;;;;;;;15.48;4.75;;;24.10;97.40;;;;;;5093679;28;20101;-63
2022/06/20 02:26:37;;;;;;;15.68;4.63;;;24.00;97.60;;;;;;5050830;28;20044;-63
2022/06/20 02:29:09;;;;;;;10.00;4.13;;;24.10;97.70;;;;;;5050888;28;20044;-62
2022/06/20 02:31:34;;;;;;;13.05;3.92;;;23.90;97.70;;;;;;5050839;28;20037;-62
2022/06/20 02:34:00;;;;;;;;;;;23.80;97.40;;;;;;5051303;28;20087;-62
2022/06/20 02:36:26;;;;;;;10.68;4.03;;;23.80;97.10;;;;;;5050667;28;19905;-62
2022/06/20 02:38:52;;;;;;;11.32;3.90;;;23.80;97.20;;;;;;5050756;28;20033;-62
2022/06/20 02:41:21;;;;;;;;;;;23.60;97.40;;;;;;5051188;28;20095;-62
2022/06/20 02:43:56;;;;;;;10.60;4.13;;;23.60;97.80;;;;;;5050648;28;20376;-62
2022/06/20 02:46:26;;;;;;;11.15;4.32;;;23.50;97.80;;;;;;5050902;28;20437;-62
2022/06/20 02:48:54;;;;;;;14.00;3.97;;;23.30;98.00;;;;;;5050858;28;20375;-62
2022/06/20 02:51:26;;;;;;;11.57;3.78;;;23.20;98.40;;;;;;5050525;28;20033;-62
2022/06/20 02:53:56;;;;;;;11.10;4.22;;;23.20;98.60;;;;;;5051068;28;20052;-62
2022/06/20 02:56:24;;;;;;;7.57;3.00;;;23.20;98.60;;;;;;5034696;28;20036;-62
2022/06/20 02:58:54;;;;;;;6.90;3.45;;;23.10;98.60;;;;;;5074596;28;20024;-61
2022/06/20 03:01:43;;;;;;;9.63;3.70;;;23.30;98.50;;;;;;5074579;28;20165;-62
2022/06/20 03:04:10;;;;;;;10.77;3.78;;;23.30;98.30;;;;;;5092923;28;20381;-62
2022/06/20 03:06:49;;;;;;;13.07;3.08;;;23.20;98.40;;;;;;5092663;28;20020;-62
2022/06/20 03:09:17;;;;;;;10.45;3.95;;;23.00;98.40;;;;;;5092565;28;20036;-62
2022/06/20 03:11:43;;;;;;;10.23;3.40;;;22.80;98.80;;;;;;5092385;28;20023;-62
2022/06/20 03:14:11;;;;;;;;;;;22.70;99.00;;;;;;5094377;28;20474;-61
2022/06/20 03:16:40;;;;;;;12.68;3.97;;;22.60;99.10;;;;;;5096366;28;20413;-62
2022/06/20 03:19:11;;;;;;;11.45;3.47;;;22.50;99.80;;;;;;5096344;28;20426;-62
2022/06/20 03:21:40;;;;;;;11.45;3.67;;;22.40;99.90;;;;;;5096683;28;20460;-62
2022/06/20 03:24:06;;;;;;;9.65;3.50;;;22.30;99.90;;;;;;5095927;28;20020;-62
2022/06/20 03:26:32;;;;;;;11.45;3.80;;;22.30;99.90;;;;;;5096100;28;20066;-62
2022/06/20 03:28:58;;;;;;;13.10;3.38;;;22.20;99.90;;;;;;5096573;28;20109;-61
2022/06/20 03:31:24;;;;;;;9.90;3.78;;;22.10;99.90;;;;;;5096068;28;20031;-62
2022/06/20 03:33:50;;;;;;;;;;;22.00;99.90;;;;;;5078404;28;20473;-62
2022/06/20 03:36:27;;;;;;;12.23;3.33;;;22.20;99.80;;;;;;5095934;28;19905;-62
2022/06/20 03:38:55;;;;;;;8.70;3.50;;;22.30;99.10;;;;;;5095998;28;20039;-62
2022/06/20 03:41:26;;;;;;;13.05;3.03;;;22.30;99.10;;;;;;5096140;28;20030;-62
2022/06/20 03:44:03;;;;;;;13.85;3.60;;;22.30;99.20;;;;;;5095759;28;20481;-62
2022/06/20 03:46:35;;;;;;;10.20;2.80;;;22.20;99.20;;;;;;5095811;28;20033;-64
2022/06/20 03:49:12;;;;;;;13.93;3.80;;;22.10;99.30;;;;;;5095853;28;20081;-63
2022/06/20 03:51:44;;;;;;;9.93;2.92;;;22.10;99.60;;;;;;5077411;28;20024;-63
2022/06/20 03:54:22;;;;;;;10.02;2.60;;;22.00;99.70;;;;;;5095706;28;20465;-63
2022/06/20 03:57:06;;;;;;;9.55;2.58;;;22.00;99.80;;;;;;5077413;28;20032;-63
2022/06/20 03:59:52;;;;;;;9.63;3.00;;;22.00;99.90;;;;;;5095952;28;20030;-63
2022/06/20 04:02:26;;;;;;;10.20;2.78;;;22.00;99.90;;;;;;5095597;28;20077;-63
2022/06/20 04:05:12;;;;;;;6.28;2.72;;;22.10;99.70;;;;;;5095906;28;20461;-62
2022/06/20 04:07:50;;;;;;;8.10;2.83;;;22.10;99.50;;;;;;5095745;28;20079;-62
2022/06/20 04:13:18;;;;;;;7.82;2.67;;;21.80;99.40;;;;;;5095487;28;20023;-61
2022/06/20 04:15:52;;;;;;;11.82;2.60;;;21.70;99.50;;;;;;5096198;28;20012;-62
2022/06/20 04:18:28;;;;;;;8.77;2.65;;;21.70;99.80;;;;;;5095593;28;20465;-62
2022/06/20 04:21:12;;;;;;;14.82;3.42;;;22.00;99.20;;;;;;5095754;28;20024;-61
2022/06/20 04:23:52;;;;;;;12.25;2.83;;;22.00;99.00;;;;;;5095208;28;20370;-62
2022/06/20 04:26:22;;;;;;;10.32;2.80;;;21.90;99.20;;;;;;5094648;28;20024;-63
2022/06/20 04:29:12;;;;;;;9.00;2.67;;;21.80;99.60;;;;;;5076850;28;20496;-63
2022/06/20 04:31:58;;;;;;;8.27;2.90;;;21.80;99.70;;;;;;5094986;28;20027;-63
2022/06/20 04:34:46;;;;;;;11.50;2.85;;;21.80;99.90;;;;;;5095524;28;20036;-62
2022/06/20 04:37:23;;;;;;;13.63;2.95;;;21.70;99.70;;;;;;5095444;28;20027;-59
2022/06/20 04:40:14;;;;;;;9.40;2.80;;;21.70;99.90;;;;;;5094971;28;20020;-60
2022/06/20 04:43:01;;;;;;;11.45;3.10;;;21.70;99.90;;;;;;5076600;28;20073;-61
2022/06/20 04:45:45;;;;;;;9.63;3.40;;;21.60;99.90;;;;;;5095235;28;20020;-61
2022/06/20 04:48:15;;;;;;;10.27;2.90;;;21.40;99.90;;;;;;5095373;28;20492;-62
2022/06/20 04:50:44;;;;;;;11.43;3.10;;;21.40;99.90;;;;;;5095524;28;20024;-62
2022/06/20 04:53:15;;;;;;;8.88;2.58;;;21.50;99.90;;;;;;5094943;28;20027;-63
2022/06/20 04:55:44;;;;;;;8.93;2.58;;;21.40;99.90;;;;;;5094971;28;20022;-63
2022/06/20 04:58:14;;;;;;;8.38;2.60;;;21.60;99.90;;;;;;5094993;28;20077;-62
2022/06/20 05:00:46;;;;;;;13.65;2.95;;;21.70;99.90;;;;;;5076929;28;20388;-61
2022/06/20 05:03:16;;;;;;;10.40;2.63;;;21.90;99.80;;;;;;5095448;28;20028;-61
2022/06/20 05:05:45;;;;;;;8.98;2.80;;;21.90;99.70;;;;;;5095401;28;20064;-61
2022/06/20 05:08:13;;;;;;;9.27;3.08;;;22.20;99.10;;;;;;5094308;28;20029;-62
2022/06/20 05:10:47;;;;;;;10.30;2.90;;;22.30;98.40;;;;;;5094679;28;20350;-63
2022/06/20 05:13:23;;;;;;;7.60;2.70;;;22.30;98.80;;;;;;5094411;28;20016;-63
2022/06/20 05:15:50;;;;;;;11.80;2.70;;;22.10;99.20;;;;;;5094328;28;20378;-61
2022/06/20 05:18:34;;;;;;;11.98;2.85;;;22.00;99.10;;;;;;5094191;28;20442;-64
2022/06/20 05:21:23;;;;;;;16.90;3.05;;;22.00;99.50;;;;;;5094541;28;20031;-61
2022/06/20 05:23:53;;;;;;;9.05;2.72;;;22.40;99.10;;;;;;5094190;28;20032;-61
2022/06/20 05:26:22;;;;;;;10.20;2.88;;;22.60;98.20;;;;;;5094522;28;20016;-62
2022/06/20 05:28:50;;;;;;;19.45;3.38;;;22.40;98.80;;;;;;5093868;28;20027;-64
2022/06/20 05:31:31;;;;;;;10.30;3.05;;;22.50;98.70;;;;;;5095060;28;20414;-57
2022/06/20 05:34:10;;;;;;;11.38;2.50;;;22.80;97.90;;;;;;5093733;28;20024;-60
2022/06/20 05:37:04;;;;;;;12.25;3.00;;;22.60;97.50;;;;;;5094127;28;20023;-60
2022/06/20 05:39:54;;;;;;;8.57;3.13;;;22.50;97.90;;;;;;5093812;28;20023;-62
2022/06/20 05:42:19;;;;;;;10.35;3.30;;;22.50;98.30;;;;;;5093401;28;20027;-65
2022/06/20 05:44:45;;;;;;;8.68;2.53;;;22.80;97.90;;;;;;5093774;28;20028;-64
2022/06/20 05:47:22;;;;;;;9.13;2.67;;;22.90;97.40;;;;;;5093388;28;20031;-65
2022/06/20 05:50:14;;;;;;;12.70;4.05;;;23.00;97.20;;;;;;5093450;28;20044;-66
2022/06/20 05:52:41;;;;;;;11.40;3.05;;;23.20;96.80;;;;;;5069500;28;20100;-65
2022/06/20 05:55:28;;;;;;;9.70;2.90;;;23.20;97.00;;;;;;5093278;28;20381;-65
2022/06/20 05:57:56;;;;;;;11.02;3.35;;;23.20;96.70;;;;;;5093516;28;20024;-62
2022/06/20 06:00:27;;;;;;;9.93;2.95;;;23.30;96.60;;;;;;5095042;28;20031;-68
2022/06/20 06:02:57;;;;;;;9.35;2.60;;;23.40;96.20;;;;;;5095544;28;20032;-68
2022/06/20 06:05:34;;;;;;;6.80;2.75;;;23.40;96.30;;;;;;5078491;28;20027;-65
2022/06/20 06:08:14;;;;;;;9.43;3.70;;;23.50;96.10;;;;;;5095027;28;20499;-64
2022/06/20 06:10:45;;;;;;;13.48;3.50;;;23.60;95.60;;;;;;5093781;28;20016;-64
2022/06/20 06:13:14;;;;;;;9.77;3.03;;;23.70;95.30;;;;;;5094013;28;20401;-65
2022/06/20 06:19:28;;;;;;;10.80;2.97;;;23.80;95.00;;;;;;5094435;28;20035;-66
2022/06/20 06:21:57;;;;;;;7.32;2.55;;;23.80;94.70;;;;;;5093247;28;20028;-63
2022/06/20 06:24:25;;;;;;;6.53;2.30;;;23.80;95.00;;;;;;5075209;28;20035;-64
2022/06/20 06:26:55;;;;;;;13.20;3.63;;;23.90;94.80;;;;;;5093414;28;20021;-65
2022/06/20 06:29:32;;;;;;;10.90;3.17;;;23.90;94.80;;;;;;5093527;28;20024;-63
2022/06/20 06:32:02;;;;;;;11.75;3.05;;;23.80;95.00;;;;;;5093102;28;20043;-65
2022/06/20 06:34:42;;;;;;;12.45;3.65;;;23.70;95.10;;;;;;5093167;28;20024;-65
2022/06/20 06:37:35;;;;;;;12.38;3.33;;;23.60;95.40;;;;;;5093716;28;20101;-66
2022/06/20 06:40:05;;;;;;;12.20;3.20;;;23.60;95.50;;;;;;5074860;28;20027;-66
2022/06/20 06:42:32;;;;;;;11.00;3.08;;;23.60;95.50;;;;;;5075314;28;20032;-67
2022/06/20 06:44:59;;;;;;;8.55;3.28;;;23.70;95.60;;;;;;5094140;28;20020;-68
2022/06/20 06:47:40;;;;;;;8.77;3.65;;;23.60;95.60;;;;;;5075401;28;20127;-67
2022/06/20 06:50:26;;;;;;;9.35;3.15;;;23.60;95.70;;;;;;5096446;28;20368;-67
2022/06/20 06:53:03;;;;;;;15.30;3.70;;;23.40;96.00;;;;;;5097402;28;20024;-65
2022/06/20 06:55:39;;;;;;;8.63;3.05;;;23.30;96.90;;;;;;5078787;28;20492;-66
2022/06/20 06:58:26;;;;;;;9.30;3.25;;;23.30;97.20;;;;;;5097081;28;20538;-65
2022/06/20 07:00:58;;;;;;;;;;;23.40;97.10;;;;;;5096732;28;20024;-65
2022/06/20 07:03:35;;;;;;;18.23;4.00;;;23.50;96.90;;;;;;5096819;28;19927;-65
2022/06/20 07:06:14;;;;;;;39.88;6.32;;;23.60;96.70;;;;;;5096394;28;20016;-65
2022/06/20 07:08:47;;;;;;;11.98;3.13;;;23.70;96.50;;;;;;5096527;28;20020;-65
2022/06/20 07:11:21;;;;;;;13.82;3.20;;;23.70;95.90;;;;;;5096630;28;20024;-66
2022/06/20 07:14:12;;;;;;;5.70;2.50;;;23.80;95.70;;;;;;5096188;28;20027;-65
2022/06/20 07:16:44;;;;;;;12.20;2.88;;;23.90;95.30;;;;;;5096756;28;20055;-66
2022/06/20 07:19:12;;;;;;;11.27;3.05;;;24.10;95.10;;;;;;5077832;28;20500;-65
2022/06/20 07:21:40;;;;;;;9.55;2.53;;;24.10;94.80;;;;;;5096307;28;20028;-65
2022/06/20 07:24:11;;;;;;;9.70;2.90;;;24.20;94.60;;;;;;5095930;28;20040;-65
2022/06/20 07:27:15;;;;;;;9.88;3.05;;;24.20;94.40;;;;;;5096427;28;20053;-64
2022/06/20 07:29:47;;;;;;;17.58;4.20;;;24.30;94.40;;;;;;5077639;28;20028;-65
2022/06/20 07:32:21;;;;;;;10.43;2.80;;;24.50;94.10;;;;;;5096087;28;20032;-64
2022/06/20 07:34:55;;;;;;;18.98;3.25;;;24.80;93.40;;;;;;5096254;28;20024;-65
2022/06/20 07:37:53;;;;;;;25.67;4.47;;;24.90;92.90;;;;;;5097158;28;20039;-64
2022/06/20 07:40:29;;;;;;;250.65;29.65;;;24.90;93.20;;;;;;5066251;28;20558;-63
2022/06/20 07:43:25;;;;;;;22.58;4.65;;;25.20;93.90;;;;;;5096288;28;20028;-63
2022/06/20 07:45:52;;;;;;;15.52;4.20;;;25.40;92.50;;;;;;5096299;28;20016;-63
2022/06/20 07:48:45;;;;;;;52.42;6.82;;;26.10;91.60;;;;;;5078030;28;20161;-64
2022/06/20 07:51:23;;;;;;;12.63;3.30;;;27.00;90.20;;;;;;5078190;28;20027;-65
2022/06/20 07:53:57;;;;;;;12.93;3.92;;;28.00;87.20;;;;;;5096415;28;20020;-63
2022/06/20 07:56:53;;;;;;;10.18;3.13;;;28.50;84.30;;;;;;5096001;28;20201;-61
2022/06/20 07:59:36;;;;;;;12.45;4.32;;;28.10;85.50;;;;;;5095397;28;20024;-63
2022/06/20 08:02:18;;;;;;;10.95;3.33;;;28.00;84.60;;;;;;5095202;28;20031;-63
2022/06/20 08:04:45;;;;;;;11.45;3.45;;;28.00;84.60;;;;;;5095696;28;20031;-62
2022/06/20 08:07:24;;;;;;;10.20;3.03;;;28.70;83.70;;;;;;5095686;28;20025;-62
2022/06/20 08:09:59;;;;;;;12.25;3.28;;;29.80;80.60;;;;;;5096728;28;20024;-63
2022/06/20 08:12:37;;;;;;;12.45;3.60;;;30.90;78.30;;;;;;5097076;28;20024;-63
2022/06/20 08:15:26;;;;;;;46.55;6.65;;;31.70;75.70;;;;;;5095527;28;20353;-64
2022/06/20 08:17:53;;;;;;;14.98;3.83;;;32.60;74.10;;;;;;5095619;28;20031;-63
2022/06/20 08:20:19;;;;;;;12.25;3.42;;;33.40;71.00;;;;;;5095947;28;20031;-62
2022/06/20 08:22:47;;;;;;;16.02;4.43;;;33.40;70.10;;;;;;5095076;28;20429;-62
2022/06/20 08:25:22;;;;;;;8.98;3.38;;;32.40;70.50;;;;;;5095773;28;20024;-63
2022/06/20 08:28:04;;;;;;;24.13;4.93;;;30.60;73.60;;;;;;5095368;28;20101;-62
2022/06/20 08:30:42;;;;;;;44.92;7.10;;;30.00;75.90;;;;;;5095619;28;20024;-60
2022/06/20 08:33:43;;;;;;;74.95;9.15;;;29.70;77.70;;;;;;5095017;28;20040;-61
2022/06/20 08:36:35;;;;;;;22.60;5.05;;;29.40;79.90;;;;;;5094952;28;20052;-63
2022/06/20 08:39:08;;;;;;;12.63;3.83;;;29.10;80.20;;;;;;5095102;28;20380;-62
2022/06/20 08:41:53;;;;;;;13.30;4.00;;;28.60;79.60;;;;;;5095048;28;20073;-63
2022/06/20 08:45:17;;;;;;;14.15;4.38;;;28.10;81.30;;;;;;5094603;28;20035;-62
2022/06/20 08:47:45;;;;;;;24.85;5.82;;;28.10;83.50;;;;;;5021836;28;20038;-62
2022/06/20 08:50:38;;;;;;;11.88;4.55;;;28.30;82.50;;;;;;5032780;28;20033;-64
2022/06/20 08:53:31;;;;;;;10.48;3.67;;;28.30;82.40;;;;;;5032734;28;20029;-62
2022/06/20 08:56:15;;;;;;;7.82;4.05;;;28.40;82.40;;;;;;5032101;28;20367;-63
2022/06/20 08:58:48;;;;;;;15.63;4.45;;;29.00;81.80;;;;;;5032222;28;20047;-64
2022/06/20 09:01:24;;;;;;;12.45;5.55;;;29.50;80.50;;;;;;5032241;28;20025;-64
2022/06/20 09:04:26;;;;;;;10.73;4.25;;;30.10;80.00;;;;;;5031780;28;20025;-62
2022/06/20 09:07:06;;;;;;;15.88;4.88;;;32.00;76.10;;;;;;5031711;28;20502;-64
2022/06/20 09:09:43;;;;;;;9.07;3.70;;;33.40;73.70;;;;;;5033273;28;20037;-65
2022/06/20 09:12:17;;;;;;;9.30;3.78;;;34.20;71.20;;;;;;5014841;28;20041;-65
2022/06/20 09:15:18;;;;;;;12.63;4.30;;;35.60;68.50;;;;;;5015054;28;20096;-66
2022/06/20 09:18:26;;;;;;;10.55;4.20;;;37.10;65.90;;;;;;5017397;28;20050;-66
2022/06/20 09:21:05;;;;;;;13.55;4.32;;;38.00;63.10;;;;;;5064349;28;20071;-67
2022/06/20 09:23:48;;;;;;;10.20;4.22;;;36.10;64.10;;;;;;5075423;28;20024;-65
2022/06/20 09:26:27;;;;;;;8.43;4.07;;;34.40;66.80;;;;;;5093902;28;20031;-64
2022/06/20 09:28:53;;;;;;;10.30;4.13;;;33.20;68.60;;;;;;5093929;28;20020;-62
2022/06/20 09:31:21;;;;;;;10.07;4.03;;;32.00;70.90;;;;;;5093456;28;20395;-65
2022/06/20 09:34:03;;;;;;;21.48;4.05;;;31.20;72.80;;;;;;5093773;28;20349;-64
2022/06/20 09:36:37;;;;;;;14.20;4.20;;;30.70;74.40;;;;;;5093723;28;20139;-63
2022/06/20 09:39:09;;;;;;;15.88;3.95;;;30.20;75.70;;;;;;5093596;28;20030;-63
2022/06/20 09:41:54;;;;;;;12.23;4.40;;;29.60;77.00;;;;;;5094231;28;20046;-63
2022/06/20 09:44:45;;;;;;;13.73;5.03;;;29.20;78.10;;;;;;5075644;28;20028;-63
2022/06/20 09:47:20;;;;;;;37.08;7.00;;;29.10;78.50;;;;;;5093749;28;20027;-64
2022/06/20 09:50:17;;;;;;;54.65;9.27;;;29.10;79.50;;;;;;5093435;28;20123;-65
2022/06/20 09:52:51;;;;;;;;;;;29.10;79.90;;;;;;5093908;28;20103;-67
2022/06/20 09:55:24;;;;;;;66.25;8.63;;;29.20;79.40;;;;;;5093866;28;20268;-67
2022/06/20 09:58:08;;;;;;;7.82;4.45;;;29.30;80.10;;;;;;5093170;28;20023;-67
2022/06/20 10:00:47;;;;;;;21.92;5.47;;;29.30;79.50;;;;;;5075221;28;20027;-66
2022/06/20 10:03:43;;;;;;;16.73;4.90;;;29.20;80.10;;;;;;5094187;28;20031;-66
2022/06/20 10:06:26;;;;;;;18.90;5.22;;;29.40;80.20;;;;;;5075144;28;20388;-68
2022/06/20 10:09:14;;;;;;;12.65;4.75;;;30.00;79.10;;;;;;5075471;28;20020;-68
2022/06/20 10:12:04;;;;;;;9.75;4.35;;;30.50;77.70;;;;;;5093458;28;20017;-67
2022/06/20 10:14:45;;;;;;;37.70;6.07;;;30.40;77.10;;;;;;5093226;28;20461;-65
2022/06/20 10:17:23;;;;;;;18.58;5.40;;;30.60;77.20;;;;;;5093614;28;20050;-66
2022/06/20 10:20:03;;;;;;;12.07;3.97;;;31.00;76.60;;;;;;5093585;28;20107;-67
2022/06/20 10:22:39;;;;;;;11.68;4.40;;;31.40;75.80;;;;;;5092860;28;20543;-66
2022/06/20 10:25:23;;;;;;;;;;;31.40;75.20;;;;;;5093340;28;20028;-67
2022/06/20 10:28:11;;;;;;;10.52;3.85;;;31.00;75.60;;;;;;5092869;28;19904;-67
2022/06/20 10:31:01;;;;;;;9.35;4.10;;;30.80;76.50;;;;;;5093326;28;20054;-66
2022/06/20 10:34:03;;;;;;;10.05;3.92;;;30.40;77.10;;;;;;5092846;28;20025;-65
2022/06/20 10:37:00;;;;;;;23.88;5.10;;;29.90;78.50;;;;;;5075641;28;20020;-66
2022/06/20 10:39:54;;;;;;;16.65;4.47;;;29.60;79.60;;;;;;5094372;28;20024;-66
2022/06/20 10:42:40;;;;;;;17.40;5.55;;;29.30;80.20;;;;;;5094812;28;20024;-67
2022/06/20 10:45:21;;;;;;;40.53;24.03;;;29.70;80.10;;;;;;5095743;28;20469;-66
2022/06/20 10:48:01;;;;;;;13.90;4.68;;;30.30;79.00;;;;;;5093362;28;20446;-67
2022/06/20 10:51:01;;;;;;;34.00;20.23;;;31.40;76.80;;;;;;5093493;28;20020;-65
2022/06/20 10:54:07;;;;;;;11.75;7.05;;;33.50;73.00;;;;;;5092844;28;20050;-67
2022/06/20 10:57:07;;;;;;;13.32;7.85;;;33.10;71.40;;;;;;5093356;28;20054;-67
2022/06/20 10:59:51;;;;;;;5.25;2.25;;;32.40;70.70;;;;;;5081473;28;20067;-66
2022/06/20 11:02:38;;;;;;;9.40;4.63;;;32.00;70.90;;;;;;5092662;28;20057;-67
2022/06/20 11:05:12;;;;;;;;;;;32.40;71.00;;;;;;5092996;28;20024;-67
2022/06/20 11:07:54;;;;;;;9.02;3.55;;;33.00;69.70;;;;;;5092182;28;19911;-64
2022/06/20 11:10:46;;;;;;;5.95;2.70;;;33.40;68.00;;;;;;5074206;28;20115;-65
2022/06/20 11:13:29;;;;;;;6.38;2.20;;;33.40;68.30;;;;;;5081722;28;20103;-65
2022/06/20 11:16:12;;;;;;;8.32;2.88;;;33.10;68.10;;;;;;5092964;28;20027;-65
2022/06/20 11:18:37;;;;;;;4.40;1.98;;;32.30;69.50;;;;;;5092376;28;20034;-66
2022/06/20 11:21:44;;;;;;;3.72;1.90;;;31.50;69.70;;;;;;5092429;28;20031;-66
2022/06/20 11:24:21;;;;;;;5.50;1.95;;;31.20;70.50;;;;;;5078504;28;20119;-67
2022/06/20 11:27:08;;;;;;;8.40;2.15;;;30.90;71.10;;;;;;5092335;28;20020;-67
2022/06/20 11:30:08;;;;;;;8.88;3.42;;;30.30;72.40;;;;;;5092429;28;20028;-66
2022/06/20 11:32:51;;;;;;;8.90;3.42;;;29.40;77.20;;;;;;5092110;28;20044;-65
2022/06/20 11:35:38;;;;;;;13.00;3.50;;;28.80;78.80;;;;;;5093876;28;20086;-65
2022/06/20 11:38:42;;;;;;;12.10;3.55;;;28.30;80.60;;;;;;5095791;28;20046;-65
2022/06/20 11:41:32;;;;;;;11.93;3.83;;;27.30;83.90;;;;;;5085848;28;20443;-65
2022/06/20 11:44:27;;;;;;;9.77;3.50;;;27.00;85.30;;;;;;5095697;28;20035;-66
2022/06/20 11:47:03;;;;;;;7.70;3.70;;;26.70;86.80;;;;;;5095448;28;20364;-67
2022/06/20 11:49:50;;;;;;;13.88;3.80;;;26.50;87.90;;;;;;5095511;28;20028;-66
2022/06/20 11:52:24;;;;;;;11.18;3.45;;;26.10;90.10;;;;;;5095576;28;20388;-66
2022/06/20 11:55:27;;;;;;;10.55;4.57;;;25.90;91.20;;;;;;5095625;28;20016;-65
2022/06/20 11:58:19;;;;;;;12.35;4.10;;;25.60;93.50;;;;;;5033394;28;20029;-67
2022/06/20 12:00:52;;;;;;;13.00;4.18;;;25.40;99.00;;;;;;5033529;28;20071;-68
2022/06/20 12:03:36;;;;;;;8.88;4.18;;;25.10;99.90;;;;;;5032956;28;20402;-66
2022/06/20 12:06:16;;;;;;;15.93;5.28;;;24.80;99.90;;;;;;5033123;28;20075;-67
2022/06/20 12:08:53;;;;;;;10.65;4.10;;;24.70;99.90;;;;;;5032473;28;20445;-67
2022/06/20 12:11:28;;;;;;;8.60;4.13;;;24.40;99.90;;;;;;5032773;28;20494;-66
2022/06/20 12:14:02;;;;;;;8.65;4.38;;;24.30;99.90;;;;;;5032916;28;20557;-64
2022/06/20 12:16:28;;;;;;;8.45;4.07;;;24.40;99.90;;;;;;5033562;28;20021;-62
2022/06/20 12:24:50;;;;;;;6.80;3.60;;;25.00;99.90;;;;;;5033470;28;20045;-67
2022/06/20 12:27:18;;;;;;;6.85;3.40;;;25.00;99.90;;;;;;5033616;28;20045;-66
2022/06/20 12:29:45;;;;;;;6.97;3.35;;;25.00;99.90;;;;;;5033047;28;20033;-66
2022/06/20 12:32:17;;;;;;;6.18;3.05;;;25.00;99.90;;;;;;5034384;28;20025;-68
2022/06/20 12:34:55;;;;;;;5.05;3.30;;;24.60;99.90;;;;;;5096441;28;20035;-68
2022/06/20 12:37:37;;;;;;;6.47;2.90;;;24.40;99.90;;;;;;5095511;28;20052;-68
2022/06/20 12:40:15;;;;;;;10.85;3.05;;;24.20;99.90;;;;;;5095274;28;20040;-66
2022/06/20 12:42:55;;;;;;;6.30;2.80;;;24.10;99.90;;;;;;5076407;28;20026;-66
2022/06/20 12:45:29;;;;;;;3.38;2.45;;;24.10;99.90;;;;;;5094630;28;20497;-67
2022/06/20 12:48:06;;;;;;;7.53;2.60;;;24.30;99.90;;;;;;5094004;28;20118;-65
2022/06/20 12:51:09;;;;;;;3.80;2.30;;;24.50;99.90;;;;;;5095302;28;20032;-67
2022/06/20 12:53:38;;;;;;;4.93;2.47;;;24.60;99.90;;;;;;5032877;28;20379;-66
2022/06/20 12:56:21;;;;;;;6.97;2.28;;;24.40;99.30;;;;;;5085074;28;20126;-66
2022/06/20 12:59:05;;;;;;;6.60;2.55;;;24.30;99.90;;;;;;5095382;28;20032;-66
2022/06/20 13:01:46;;;;;;;9.32;3.20;;;24.30;99.60;;;;;;5096124;28;20043;-67
2022/06/20 13:04:17;;;;;;;4.85;2.80;;;24.10;99.90;;;;;;5095673;28;20024;-66
2022/06/20 13:06:50;;;;;;;5.97;3.15;;;24.10;99.30;;;;;;5077943;28;20044;-67
2022/06/20 13:09:32;;;;;;;3.80;2.60;;;24.00;99.80;;;;;;5096573;28;20028;-69
2022/06/20 13:12:18;;;;;;;4.72;2.40;;;24.10;99.80;;;;;;5095537;28;20553;-65
2022/06/20 13:15:02;;;;;;;4.65;2.60;;;24.30;99.60;;;;;;5095629;28;20035;-65
2022/06/20 13:17:47;;;;;;;6.22;2.50;;;24.30;99.20;;;;;;5096196;28;20103;-64
2022/06/20 13:20:44;;;;;;;4.55;2.20;;;24.30;98.70;;;;;;5095943;28;20071;-63
2022/06/20 13:23:34;;;;;;;3.53;2.28;;;24.30;98.40;;;;;;5095825;28;20024;-63
2022/06/20 13:26:14;;;;;;;8.02;2.50;;;24.00;98.60;;;;;;5095580;28;20070;-64
2022/06/20 13:29:14;;;;;;;4.57;2.80;;;24.00;99.00;;;;;;5095004;28;20032;-65
2022/06/20 13:31:48;;;;;;;4.90;2.40;;;23.80;98.90;;;;;;5094251;28;20052;-66
2022/06/20 13:34:22;;;;;;;4.78;2.88;;;23.90;98.80;;;;;;5094806;28;20028;-68
2022/06/20 13:37:17;;;;;;;4.40;3.03;;;23.90;98.00;;;;;;5094948;28;20473;-69
2022/06/20 13:40:00;;;;;;;6.22;3.00;;;23.70;99.30;;;;;;5076950;28;20024;-69
2022/06/20 13:42:37;;;;;;;3.53;2.70;;;23.50;99.90;;;;;;5076586;28;20430;-70
2022/06/20 13:45:12;;;;;;;5.10;2.70;;;23.50;99.90;;;;;;5076642;28;20035;-68
2022/06/20 13:47:59;;;;;;;5.22;2.92;;;23.30;99.90;;;;;;5094703;28;20069;-69
2022/06/20 13:50:55;;;;;;;3.88;3.45;;;23.00;99.90;;;;;;5094603;28;20418;-69
2022/06/20 13:53:54;;;;;;;8.90;3.67;;;22.60;99.90;;;;;;5070744;28;20050;-68
2022/06/20 13:56:23;;;;;;;3.90;3.50;;;22.50;99.90;;;;;;5093694;28;20099;-69